RJAARJCC

Guest
Details From RJAA - NARITA INTL
To RJCC - NEW CHITOSE
Flight Number -
Tags generated
Created
Modified
Stats Distance 427 nm / 792 km
Max Altitude 35,000 ft / 10,668 m
Waypoints 10
Social Downloads 10
Likes 0
Share VATSIM

Download

Looking for another format? Having issues loading an existing format? Contact us
Advertisement - Login to hide

Notes

Basic altitude profile: - Ascent Rate: 2500ft/min - Ascent Speed: 250kts - Cruise Altitude: 35000ft - Cruise Speed: 420kts - Descent Rate: 1500ft/min - Descent Speed: 250kts Options: - Use NATs: yes - Use PACOTS: yes - Use low airways: yes - Use high airways: yes

Route

RJAA GOC V32 YTE V11 CHE RJCC

ID Type Via Altitude Latitude Longitude Leg Dist Tot Dist Heading (true) Name
O RJAA APT - 0 ft / 0 m 35.77655˚ 140.38277˚ - 0 nm - NARITA INTL
GOC VOR - 20,700 ft / 6,309 m 36.74437˚ 140.34985˚ 58 nm 58 nm 358° / 358° DAIGO VORTAC
YTE VOR V32 (AWY-HI) 35,000 ft / 10,668 m 38.38862˚ 140.35795˚ 98 nm 156 nm 0° / 0° YAMAGATA VOR-DME
HANKA FIX V11 (AWY-HI) 35,000 ft / 10,668 m 39.01832˚ 140.56133˚ 39 nm 195 nm 14° / 14° -
SAMBO FIX V11 (AWY-HI) 33,000 ft / 10,058 m 40.18776˚ 140.95038˚ 72 nm 268 nm 14° / 15° -
MWE VOR V11 (AWY-HI) 25,800 ft / 7,864 m 40.80891˚ 141.15736˚ 38 nm 306 nm 14° / 14° TOHOKU VOR-DME
IBURI FIX V11 (AWY-LO) 11,000 ft / 3,353 m 41.93293˚ 141.47091˚ 68 nm 375 nm 12° / 12° -
NAVER FIX V11 (AWY-LO) 8,400 ft / 2,560 m 42.12874˚ 141.52559˚ 12 nm 387 nm 12° / 12° -
CHE VOR V11 (AWY-LO) 6,000 ft / 1,829 m 42.69990˚ 141.68617˚ 35 nm 422 nm 12° / 12° CHITOSE VOR-DME
O RJCC APT - 0 ft / 0 m 42.77521˚ 141.69228˚ 4 nm 427 nm 3° / 3° NEW CHITOSE

Altitude Profile

Advertisement - Login to hide

Weather


0- 5 10 15 20 25 30 35+ Temperature / ° C

Clouds and Precipitation
Forecast for 2017-12-11 18:00 UTC. Updated 14 minutes ago

Ground ~20,000 ft ~40,000 ft Winds

RJAA

Details ICAO RJAA (NRT)
Name NARITA INTL
Region Japan
Timezone Asia/Tokyo (UTC+9.0)
Stats Elevation 141 ft / 43 m (AMSL)
Location 35.776552° 140.382770°
Runways 2
Magnetic Variation 7.405° W

METAR

RJAA 111330Z 25014G24KT 210V280 9999 FEW030 09/00 Q1003 NOSIG

Decode

TAF

TAF RJAA 111105Z 1112/1218 28010KT 9999 FEW030= TAF RJBB 111105Z 1112/1218 29030KT 9999 FEW015 SCT025 BKN035 TEMPO 1112/1118 29034G45KT TEMPO 1118/1203 29024G34KT BECMG 1206/1209 29020KT

Decode

Departure Runways

ID Width Length Bearing (true) Bearing (mag) Surface Threshold Offset Overrun Length
16L 196 ft / 60 m 7,162 ft / 2,183 m 149.61° 157.01° Asphalt 190 ft / 58 m 0 ft / 0 m
16R 196 ft / 60 m 13,142 ft / 4,006 m 149.61° 157.01° Asphalt 0 ft / 0 m 410 ft / 125 m
34L 196 ft / 60 m 13,142 ft / 4,006 m 329.62° 337.02° Asphalt 0 ft / 0 m 415 ft / 126 m
34R 196 ft / 60 m 7,162 ft / 2,183 m 329.62° 337.02° Asphalt 190 ft / 58 m 0 ft / 0 m

RJCC

Details ICAO RJCC (CTS)
Name NEW CHITOSE
Region Japan
Timezone Asia/Tokyo (UTC+9.0)
Stats Elevation 82 ft / 25 m (AMSL)
Location 42.775206° 141.692283°
Runways 2
Magnetic Variation 9.389° W

METAR

RJCC 111330Z 24011KT 9999 FEW015 BKN080 01/M06 Q1000

Decode

TAF

TAF RJCC 111107Z 1112/1218 27006KT 9999 FEW015 BKN040 TEMPO 1112/1115 3000 -SHSN BECMG 1113/1115 23007KT

Decode

Destination Runways

ID Width Length Bearing (true) Bearing (mag) Surface Threshold Offset Overrun Length
01L 200 ft / 61 m 9,859 ft / 3,005 m 352.64° 2.03° Asphalt 0 ft / 0 m 185 ft / 56 m
01R 200 ft / 61 m 9,854 ft / 3,004 m 352.64° 2.03° Asphalt 0 ft / 0 m 185 ft / 56 m
19L 200 ft / 61 m 9,854 ft / 3,004 m 172.64° 182.03° Asphalt 0 ft / 0 m 185 ft / 56 m
19R 200 ft / 61 m 9,859 ft / 3,005 m 172.63° 182.02° Asphalt 0 ft / 0 m 185 ft / 56 m

Approach Navaids

Runway Type Ident Frequency Range Bearing (true) Bearing (mag) Slope Elevation
01L Localiser ICN 110.90 MHz 18 nm / 33 km 352.62° 2.01° - 82 ft / 25 m (AMSL)
01L Glidescope ICN 110.90 MHz 10 nm / 19 km 352.63° 2.02° 3.00° 81 ft / 25 m (AMSL)
01L DME ICN 110.90 MHz 18 nm / 33 km - - - 81 ft / 25 m (AMSL)
01R Localiser ICH 110.75 MHz 18 nm / 33 km 352.64° 2.03° - 82 ft / 25 m (AMSL)
01R Glidescope ICH 110.75 MHz 10 nm / 19 km 352.64° 2.03° 3.00° 83 ft / 25 m (AMSL)
01R DME ICH 110.75 MHz 18 nm / 33 km - - - 83 ft / 25 m (AMSL)
19R Localiser ICS 111.50 MHz 18 nm / 33 km 172.62° 182.01° - 82 ft / 25 m (AMSL)
19R Glidescope ICS 111.50 MHz 10 nm / 19 km 172.63° 182.02° 3.00° 0 ft / 0 m (AMSL)
19R DME ICS 111.50 MHz 18 nm / 33 km - - - 82 ft / 25 m (AMSL)

Popular Alternatives